createdAt,value
2018-04-29T00:02:14.022Z,13.00
2018-04-29T00:04:50.186Z,13.00
2018-04-29T00:07:17.802Z,13.00
2018-04-29T00:09:45.474Z,13.00
2018-04-29T00:12:13.040Z,13.10
2018-04-29T00:14:40.650Z,13.10
2018-04-29T00:17:08.271Z,13.10
2018-04-29T00:19:35.895Z,13.10
2018-04-29T00:22:03.516Z,13.00
2018-04-29T00:24:31.902Z,13.10
2018-04-29T00:26:59.523Z,13.10
2018-04-29T00:29:27.143Z,13.00
2018-04-29T00:31:54.755Z,12.90
2018-04-29T00:34:22.375Z,12.90
2018-04-29T00:36:49.995Z,12.80
2018-04-29T00:39:17.613Z,12.80
2018-04-29T00:41:45.226Z,12.70
2018-04-29T00:44:12.859Z,12.70
2018-04-29T00:46:40.485Z,12.60
2018-04-29T00:49:08.862Z,12.50
2018-04-29T00:51:48.372Z,12.50
2018-04-29T00:54:16.024Z,12.50
2018-04-29T00:56:43.616Z,12.50
2018-04-29T00:59:11.235Z,12.40
2018-04-29T01:01:38.846Z,12.30
2018-04-29T01:04:06.470Z,12.10
2018-04-29T01:06:34.095Z,12.00
2018-04-29T01:09:01.716Z,11.90
2018-04-29T01:11:29.722Z,11.80
2018-04-29T01:13:57.347Z,11.70
2018-04-29T01:16:24.998Z,11.60
2018-04-29T01:18:52.587Z,11.50
2018-04-29T01:21:20.213Z,11.50
2018-04-29T01:23:47.850Z,11.40
2018-04-29T01:26:16.239Z,11.20
2018-04-29T01:28:43.850Z,11.20
2018-04-29T01:31:11.478Z,11.20
2018-04-29T01:33:39.105Z,11.10
2018-04-29T01:36:06.732Z,11.00
2018-04-29T01:38:34.740Z,10.90
2018-04-29T01:41:02.367Z,10.90
2018-04-29T01:43:30.763Z,10.70
2018-04-29T01:45:58.382Z,10.70
2018-04-29T01:48:26.002Z,10.70
2018-04-29T01:50:53.627Z,10.60
2018-04-29T01:53:21.246Z,10.60
2018-04-29T01:55:48.871Z,10.50
2018-04-29T01:58:16.496Z,10.60
2018-04-29T02:00:44.120Z,10.60
2018-04-29T02:03:11.738Z,10.60
2018-04-29T02:05:39.354Z,10.50
2018-04-29T02:08:06.970Z,10.40
2018-04-29T02:10:34.587Z,10.40
2018-04-29T02:13:02.203Z,10.30
2018-04-29T02:15:29.822Z,10.20
2018-04-29T02:17:57.439Z,10.10
2018-04-29T02:20:25.063Z,10.10
2018-04-29T02:22:52.691Z,10.10
2018-04-29T02:25:21.075Z,10.00
2018-04-29T02:27:49.455Z,9.90
2018-04-29T02:30:17.073Z,9.90
2018-04-29T02:32:44.678Z,9.90
2018-04-29T02:35:12.286Z,9.90
2018-04-29T02:37:39.908Z,9.80
2018-04-29T02:40:07.780Z,9.80
2018-04-29T02:42:36.160Z,9.80
2018-04-29T02:45:03.775Z,9.70
2018-04-29T02:47:31.390Z,9.70
2018-04-29T02:49:59.003Z,9.60
2018-04-29T02:52:26.619Z,9.60
2018-04-29T02:54:54.235Z,9.60
2018-04-29T02:57:21.855Z,9.50
2018-04-29T02:59:49.466Z,9.50
2018-04-29T03:02:17.074Z,9.50
2018-04-29T03:04:44.683Z,9.50
2018-04-29T03:07:12.304Z,9.50
2018-04-29T03:09:39.914Z,9.40
2018-04-29T03:12:07.598Z,9.40
2018-04-29T03:14:35.143Z,9.30
2018-04-29T03:17:02.754Z,9.30
2018-04-29T03:19:30.364Z,9.30
2018-04-29T03:21:57.980Z,9.20
2018-04-29T03:24:25.610Z,9.20
2018-04-29T03:26:53.990Z,9.20
2018-04-29T03:29:21.599Z,9.10
2018-04-29T03:31:49.216Z,9.10
2018-04-29T03:34:17.591Z,9.10
2018-04-29T03:36:45.199Z,9.10
2018-04-29T03:39:12.818Z,9.10
2018-04-29T03:41:41.202Z,9.00
2018-04-29T03:44:08.811Z,9.00
2018-04-29T03:46:36.435Z,9.00
2018-04-29T03:49:04.802Z,9.00
2018-04-29T03:51:32.418Z,8.90
2018-04-29T03:54:00.032Z,9.00
2018-04-29T03:56:27.645Z,9.00
2018-04-29T03:59:07.328Z,8.90
2018-04-29T04:01:51.279Z,9.00
2018-04-29T04:04:14.467Z,9.00
2018-04-29T04:06:42.085Z,8.90
2018-04-29T04:09:09.701Z,8.90
2018-04-29T04:11:38.081Z,8.90
2018-04-29T04:14:05.692Z,8.90
2018-04-29T04:16:33.308Z,8.90
2018-04-29T04:19:01.682Z,8.90
2018-04-29T04:21:29.299Z,8.80
2018-04-29T04:23:56.917Z,8.90
2018-04-29T04:26:25.302Z,8.90
2018-04-29T04:28:52.934Z,8.90
2018-04-29T04:31:20.541Z,9.00
2018-04-29T04:33:48.925Z,9.00
2018-04-29T04:36:16.531Z,9.00
2018-04-29T04:38:44.151Z,9.10
2018-04-29T04:41:24.804Z,9.20
2018-04-29T04:43:52.418Z,9.20
2018-04-29T04:46:20.035Z,9.20
2018-04-29T04:48:48.423Z,9.20
2018-04-29T04:51:16.041Z,9.20
2018-04-29T04:53:43.652Z,9.20
2018-04-29T04:56:11.279Z,9.20
2018-04-29T04:58:38.895Z,9.20
2018-04-29T05:01:06.520Z,9.20
2018-04-29T05:03:34.123Z,9.20
2018-04-29T05:06:02.502Z,9.20
2018-04-29T05:08:30.128Z,9.20
2018-04-29T05:10:57.740Z,9.20
2018-04-29T05:13:25.363Z,9.30
2018-04-29T05:15:52.980Z,9.40
2018-04-29T05:18:20.594Z,9.40
2018-04-29T05:20:48.211Z,9.40
2018-04-29T05:23:15.824Z,9.50
2018-04-29T05:25:43.438Z,9.50
2018-04-29T05:28:11.056Z,9.70
2018-04-29T05:30:38.667Z,9.80
2018-04-29T05:33:07.050Z,10.00
2018-04-29T05:35:34.667Z,10.00
2018-04-29T05:38:02.287Z,10.20
2018-04-29T05:40:29.909Z,10.40
2018-04-29T05:42:57.531Z,10.60
2018-04-29T05:45:25.359Z,10.70
2018-04-29T05:47:52.978Z,10.90
2018-04-29T05:50:20.598Z,11.10
2018-04-29T05:52:48.986Z,11.40
2018-04-29T05:55:16.600Z,11.40
2018-04-29T05:57:44.222Z,11.50
2018-04-29T06:00:13.076Z,11.70
2018-04-29T06:02:40.680Z,11.60
2018-04-29T06:05:08.305Z,11.80
2018-04-29T06:07:35.992Z,11.90
2018-04-29T06:10:03.611Z,12.00
2018-04-29T06:12:31.239Z,12.00
2018-04-29T06:14:58.862Z,12.10
2018-04-29T06:17:26.564Z,12.20
2018-04-29T06:19:54.940Z,12.30
2018-04-29T06:22:22.767Z,12.30
2018-04-29T06:24:51.219Z,12.30
2018-04-29T06:27:18.848Z,12.40
2018-04-29T06:29:46.466Z,12.40
2018-04-29T06:32:14.090Z,12.60
2018-04-29T06:34:41.698Z,12.80
2018-04-29T06:37:09.314Z,12.90
2018-04-29T06:39:36.930Z,13.10
2018-04-29T06:42:04.555Z,13.10
2018-04-29T06:44:32.394Z,13.10
2018-04-29T06:47:00.019Z,13.10
2018-04-29T06:49:28.406Z,13.20
2018-04-29T06:51:56.027Z,13.20
2018-04-29T06:54:23.647Z,13.30
2018-04-29T06:56:51.271Z,13.30
2018-04-29T06:59:18.895Z,13.40
2018-04-29T07:01:46.508Z,13.40
2018-04-29T07:04:14.126Z,13.50
2018-04-29T07:06:41.742Z,13.40
2018-04-29T07:09:09.358Z,13.40
2018-04-29T07:11:36.976Z,13.50
2018-04-29T07:14:04.659Z,13.40
2018-04-29T07:16:32.212Z,13.40
2018-04-29T07:18:59.834Z,13.50
2018-04-29T07:21:27.501Z,13.50
2018-04-29T07:23:55.099Z,13.50
2018-04-29T07:26:22.718Z,13.50
2018-04-29T07:28:51.342Z,13.40
2018-04-29T07:31:18.959Z,13.40
2018-04-29T07:33:46.582Z,13.30
2018-04-29T07:36:14.195Z,13.50
2018-04-29T07:38:41.820Z,13.50
2018-04-29T07:41:09.430Z,13.50
2018-04-29T07:43:37.047Z,13.60
2018-04-29T07:46:04.667Z,13.60
2018-04-29T07:48:32.283Z,13.70
2018-04-29T07:50:59.913Z,13.90
2018-04-29T07:53:27.529Z,13.90
2018-04-29T07:55:55.151Z,13.80
2018-04-29T07:58:23.966Z,13.80
2018-04-29T08:00:51.596Z,13.60
2018-04-29T08:03:19.199Z,13.50
2018-04-29T08:05:46.810Z,13.40
2018-04-29T08:08:14.447Z,13.40
2018-04-29T08:10:42.058Z,13.40
2018-04-29T08:13:09.676Z,13.40
2018-04-29T08:15:37.297Z,13.30
2018-04-29T08:18:04.963Z,13.40
2018-04-29T08:20:32.631Z,13.30
2018-04-29T08:23:00.243Z,13.30
2018-04-29T08:25:28.631Z,13.40
2018-04-29T08:27:59.964Z,13.40
2018-04-29T08:30:28.591Z,13.60
2018-04-29T08:32:57.582Z,13.60
2018-04-29T08:35:26.427Z,13.90
2018-04-29T08:37:54.087Z,14.10
2018-04-29T08:40:21.708Z,14.20
2018-04-29T08:42:49.330Z,14.30
2018-04-29T08:45:16.943Z,14.20
2018-04-29T08:47:44.567Z,14.20
2018-04-29T08:50:12.275Z,14.10
2018-04-29T08:52:39.866Z,14.20
2018-04-29T08:55:07.484Z,14.30
2018-04-29T08:57:35.106Z,14.40
2018-04-29T09:00:03.731Z,14.60
2018-04-29T09:02:31.342Z,14.80
2018-04-29T09:05:03.346Z,15.00
2018-04-29T09:07:30.965Z,15.30
2018-04-29T09:09:58.588Z,15.40
2018-04-29T09:12:26.191Z,15.30
2018-04-29T09:14:53.819Z,15.20
2018-04-29T09:17:22.203Z,15.10
2018-04-29T09:19:49.839Z,15.10
2018-04-29T09:22:17.461Z,15.10
2018-04-29T09:24:45.112Z,15.20
2018-04-29T09:27:12.727Z,15.40
2018-04-29T09:29:40.369Z,16.40
2018-04-29T09:35:00.784Z,18.00
2018-04-29T09:37:28.435Z,17.90
2018-04-29T09:39:56.099Z,18.00
2018-04-29T09:42:23.797Z,18.40
2018-04-29T09:44:51.444Z,18.90
2018-04-29T09:47:19.103Z,18.70
2018-04-29T09:49:47.500Z,19.60
2018-04-29T09:52:15.153Z,19.60
2018-04-29T09:54:42.792Z,19.70
2018-04-29T09:57:10.490Z,19.10
2018-04-29T09:59:38.157Z,18.80
2018-04-29T10:02:05.803Z,18.40
2018-04-29T10:04:34.208Z,17.90
2018-04-29T10:07:01.819Z,17.80
2018-04-29T10:09:29.449Z,17.70
2018-04-29T10:11:57.334Z,17.50
2018-04-29T10:14:24.960Z,17.50
2018-04-29T10:16:53.343Z,17.60
2018-04-29T10:19:20.983Z,17.60
2018-04-29T10:21:48.607Z,17.50
2018-04-29T10:24:16.227Z,17.40
2018-04-29T10:26:43.851Z,17.40
2018-04-29T10:29:11.671Z,17.90
2018-04-29T10:31:39.283Z,18.40
2018-04-29T10:34:06.913Z,18.50
2018-04-29T10:36:35.296Z,18.60
2018-04-29T10:39:02.915Z,18.60
2018-04-29T10:41:30.538Z,18.60
2018-04-29T10:44:00.118Z,18.70
2018-04-29T10:46:27.736Z,18.70
2018-04-29T10:48:55.363Z,19.00
2018-04-29T10:51:23.752Z,20.10
2018-04-29T10:53:51.376Z,20.10
2018-04-29T10:56:18.999Z,21.30
2018-04-29T10:58:46.651Z,21.70
2018-04-29T11:01:14.240Z,22.10
2018-04-29T11:03:41.863Z,22.90
2018-04-29T11:06:09.479Z,22.90
2018-04-29T11:08:37.095Z,23.00
2018-04-29T11:11:04.715Z,22.40
2018-04-29T11:13:32.388Z,22.60
2018-04-29T11:16:01.924Z,22.80
2018-04-29T11:18:29.539Z,22.60
2018-04-29T11:20:57.154Z,22.10
2018-04-29T11:23:24.779Z,22.00
2018-04-29T11:25:52.658Z,21.70
2018-04-29T11:28:20.300Z,21.40
2018-04-29T11:30:47.915Z,21.00
2018-04-29T11:33:15.561Z,20.60
2018-04-29T11:35:43.155Z,20.70
2018-04-29T11:38:11.847Z,20.90
2018-04-29T11:40:42.894Z,21.00
2018-04-29T11:43:10.515Z,21.30
2018-04-29T11:45:38.135Z,21.80
2018-04-29T11:48:05.782Z,22.70
2018-04-29T11:50:33.395Z,24.00
2018-04-29T11:53:01.015Z,24.10
2018-04-29T11:55:28.635Z,23.60
2018-04-29T11:57:56.254Z,23.00
2018-04-29T12:00:25.271Z,22.90
2018-04-29T12:02:52.891Z,22.90
2018-04-29T12:05:20.509Z,23.10
2018-04-29T12:07:48.130Z,23.30
2018-04-29T12:10:15.763Z,23.30
2018-04-29T12:12:43.394Z,23.40
2018-04-29T12:15:11.011Z,23.50
2018-04-29T12:17:38.631Z,22.90
2018-04-29T12:20:06.251Z,22.70
2018-04-29T12:22:33.875Z,22.70
2018-04-29T12:25:01.495Z,22.40
2018-04-29T12:27:29.111Z,21.90
2018-04-29T12:29:56.745Z,21.80
2018-04-29T12:32:24.371Z,21.90
2018-04-29T12:34:52.019Z,22.40
2018-04-29T12:37:19.630Z,22.60
2018-04-29T12:39:47.340Z,22.80
2018-04-29T12:42:14.901Z,23.30
2018-04-29T12:44:44.683Z,22.90
2018-04-29T12:47:12.308Z,22.80
2018-04-29T12:49:39.923Z,22.20
2018-04-29T12:52:07.551Z,22.40
2018-04-29T12:54:35.184Z,22.70
2018-04-29T12:57:02.803Z,23.00
2018-04-29T12:59:30.431Z,23.10
2018-04-29T13:01:58.059Z,23.10
2018-04-29T13:04:26.443Z,22.70
2018-04-29T13:06:54.067Z,22.70
2018-04-29T13:09:21.683Z,22.50
2018-04-29T13:11:49.315Z,22.90
2018-04-29T13:14:16.942Z,24.10
2018-04-29T13:16:44.951Z,24.70
2018-04-29T13:19:12.575Z,24.80
2018-04-29T13:21:46.131Z,25.50
2018-04-29T13:24:13.767Z,25.10
2018-04-29T13:26:41.398Z,24.60
2018-04-29T13:29:09.781Z,25.00
2018-04-29T13:31:37.403Z,24.90
2018-04-29T13:34:05.023Z,25.50
2018-04-29T13:36:32.648Z,25.60
2018-04-29T13:39:04.108Z,25.50
2018-04-29T13:41:32.493Z,25.90
2018-04-29T13:44:00.119Z,25.90
2018-04-29T13:46:27.742Z,26.60
2018-04-29T13:48:55.359Z,26.40
2018-04-29T13:51:25.205Z,26.30
2018-04-29T13:53:52.840Z,25.90
2018-04-29T13:56:20.460Z,26.50
2018-04-29T13:58:48.159Z,26.30
2018-04-29T14:01:15.970Z,25.90
2018-04-29T14:03:43.628Z,25.40
2018-04-29T14:06:11.248Z,24.70
2018-04-29T14:08:38.868Z,24.50
2018-04-29T14:11:07.251Z,26.30
2018-04-29T14:13:34.887Z,26.30
2018-04-29T14:16:02.573Z,27.30
2018-04-29T14:18:30.130Z,27.30
2018-04-29T14:20:57.755Z,26.80
2018-04-29T14:23:36.507Z,26.30
2018-04-29T14:26:04.139Z,25.50
2018-04-29T14:28:31.806Z,24.90
2018-04-29T14:30:59.427Z,24.70
2018-04-29T14:33:27.051Z,24.70
2018-04-29T14:35:54.671Z,24.70
2018-04-29T14:38:22.287Z,25.20
2018-04-29T14:40:49.922Z,25.50
2018-04-29T14:43:17.564Z,25.50
2018-04-29T14:45:45.187Z,25.40
2018-04-29T14:48:12.807Z,25.00
2018-04-29T14:50:41.198Z,24.10
2018-04-29T14:53:08.821Z,24.10
2018-04-29T14:55:44.474Z,23.80
2018-04-29T14:58:12.095Z,23.70
2018-04-29T15:00:39.707Z,23.60
2018-04-29T15:03:07.335Z,23.80
2018-04-29T15:05:34.954Z,23.60
2018-04-29T15:08:02.571Z,23.60
2018-04-29T15:10:30.224Z,23.60
2018-04-29T15:12:57.835Z,23.80
2018-04-29T15:15:25.451Z,23.80
2018-04-29T15:17:53.071Z,23.60
2018-04-29T15:20:20.683Z,23.40
2018-04-29T15:22:48.304Z,23.00
2018-04-29T15:25:15.927Z,22.70
2018-04-29T15:27:43.573Z,22.60
2018-04-29T15:30:11.167Z,22.50
2018-04-29T15:32:38.807Z,22.40
2018-04-29T15:35:07.190Z,22.40
2018-04-29T15:37:34.807Z,22.30
2018-04-29T15:40:02.443Z,22.50
2018-04-29T15:42:30.117Z,22.40
2018-04-29T15:45:05.466Z,22.40
2018-04-29T15:47:33.118Z,22.30
2018-04-29T15:50:00.730Z,22.30
2018-04-29T15:52:28.354Z,22.20
2018-04-29T15:54:55.974Z,22.20
2018-04-29T15:57:23.591Z,22.20
2018-04-29T15:59:51.217Z,22.30
2018-04-29T16:02:18.843Z,22.20
2018-04-29T16:04:46.463Z,22.20
2018-04-29T16:07:14.087Z,22.20
2018-04-29T16:09:41.708Z,22.00
2018-04-29T16:12:09.328Z,21.90
2018-04-29T16:14:36.951Z,21.80
2018-04-29T16:17:04.578Z,21.80
2018-04-29T16:19:35.287Z,21.80
2018-04-29T16:22:05.775Z,21.80
2018-04-29T16:24:33.399Z,21.70
2018-04-29T16:27:01.019Z,21.70
2018-04-29T16:29:28.639Z,21.60
2018-04-29T16:31:57.044Z,21.50
2018-04-29T16:34:24.655Z,21.50
2018-04-29T16:36:52.284Z,21.60
2018-04-29T16:39:19.913Z,21.70
2018-04-29T16:41:48.303Z,21.60
2018-04-29T16:44:15.931Z,21.50
2018-04-29T16:46:43.559Z,21.60
2018-04-29T16:49:11.183Z,21.60
2018-04-29T16:51:38.803Z,21.70
2018-04-29T16:54:06.427Z,21.70
2018-04-29T16:56:34.811Z,21.60
2018-04-29T16:59:02.449Z,21.60
2018-04-29T17:01:30.067Z,21.50
2018-04-29T17:03:57.688Z,21.50
2018-04-29T17:06:25.320Z,21.50
2018-04-29T17:08:52.936Z,21.60
2018-04-29T17:11:21.355Z,21.60
2018-04-29T17:13:48.995Z,21.60
2018-04-29T17:16:16.614Z,21.60
2018-04-29T17:18:44.226Z,21.50
2018-04-29T17:21:11.843Z,21.40
2018-04-29T17:23:39.467Z,21.30
2018-04-29T17:26:07.175Z,21.30
2018-04-29T17:28:34.796Z,21.20
2018-04-29T17:31:02.423Z,21.10
2018-04-29T17:33:30.047Z,20.90
2018-04-29T17:35:57.699Z,20.70
2018-04-29T17:38:25.314Z,20.70
2018-04-29T17:40:52.938Z,20.60
2018-04-29T17:43:20.559Z,20.50
2018-04-29T17:45:48.178Z,20.40
2018-04-29T17:48:15.880Z,20.30
2018-04-29T17:50:43.467Z,20.20
2018-04-29T17:53:11.085Z,20.10
2018-04-29T17:55:38.707Z,20.10
2018-04-29T17:58:07.491Z,20.00
2018-04-29T18:00:45.166Z,19.90
2018-04-29T18:03:12.779Z,19.90
2018-04-29T18:05:40.395Z,19.90
2018-04-29T18:08:08.031Z,19.80
2018-04-29T18:10:35.664Z,19.80
2018-04-29T18:13:03.305Z,19.70
2018-04-29T18:15:30.955Z,19.70
2018-04-29T18:17:58.604Z,19.60
2018-04-29T18:20:26.244Z,19.40
2018-04-29T18:22:53.960Z,19.40
2018-04-29T18:25:21.600Z,19.20
2018-04-29T18:27:49.260Z,19.10
2018-04-29T18:30:16.885Z,19.00
2018-04-29T18:32:45.297Z,18.90
2018-04-29T18:35:12.944Z,18.90
2018-04-29T18:37:40.579Z,18.80
2018-04-29T18:40:08.233Z,18.80
2018-04-29T18:42:35.878Z,18.80
2018-04-29T18:45:03.519Z,18.70
2018-04-29T18:47:31.199Z,18.60
2018-04-29T18:49:58.860Z,18.60
2018-04-29T18:52:26.571Z,18.50
2018-04-29T18:54:54.209Z,18.40
2018-04-29T18:57:21.857Z,18.40
2018-04-29T18:59:49.511Z,18.40
2018-04-29T19:02:17.152Z,18.30
2018-04-29T19:04:44.821Z,18.30
2018-04-29T19:07:12.445Z,18.10
2018-04-29T19:09:40.128Z,18.10
2018-04-29T19:12:07.796Z,18.00
2018-04-29T19:14:35.440Z,17.90
2018-04-29T19:17:03.115Z,17.70
2018-04-29T19:19:30.757Z,17.60
2018-04-29T19:21:58.432Z,17.50
2018-04-29T19:24:26.291Z,17.50
2018-04-29T19:26:53.934Z,17.50
2018-04-29T19:29:21.591Z,17.40
2018-04-29T19:31:49.225Z,17.30
2018-04-29T19:34:16.881Z,17.30
2018-04-29T19:36:44.545Z,17.30
2018-04-29T19:39:12.190Z,17.30
2018-04-29T19:41:40.599Z,17.30
2018-04-29T19:44:08.243Z,17.30
2018-04-29T19:46:35.922Z,17.30
2018-04-29T19:49:03.565Z,17.30
2018-04-29T19:51:31.194Z,17.20
2018-04-29T19:53:58.796Z,17.20
2018-04-29T19:56:26.445Z,17.10
2018-04-29T19:58:54.877Z,17.10
2018-04-29T20:01:24.010Z,17.10
2018-04-29T20:03:51.615Z,17.10
2018-04-29T20:06:20.011Z,17.00
2018-04-29T20:08:47.689Z,17.00
2018-04-29T20:11:15.291Z,16.90
2018-04-29T20:13:42.911Z,16.90
2018-04-29T20:16:10.541Z,16.90
2018-04-29T20:18:38.803Z,16.90
2018-04-29T20:21:06.472Z,16.90
2018-04-29T20:23:34.128Z,16.90
2018-04-29T20:26:01.751Z,16.80
2018-04-29T20:28:29.687Z,16.80
2018-04-29T20:30:57.304Z,16.70
2018-04-29T20:33:24.927Z,16.70
2018-04-29T20:35:52.547Z,16.70
2018-04-29T20:38:20.163Z,16.70
2018-04-29T20:40:47.791Z,16.60
2018-04-29T20:43:15.423Z,16.60
2018-04-29T20:45:43.064Z,16.60
2018-04-29T20:48:10.676Z,16.50
2018-04-29T20:50:38.291Z,16.50
2018-04-29T20:53:05.921Z,16.50
2018-04-29T20:55:33.543Z,16.50
2018-04-29T20:58:01.932Z,16.50
2018-04-29T21:00:29.551Z,16.50
2018-04-29T21:02:57.182Z,16.50
2018-04-29T21:05:24.800Z,16.50
2018-04-29T21:07:52.430Z,16.40
2018-04-29T21:10:20.315Z,16.40
2018-04-29T21:12:47.940Z,16.40
2018-04-29T21:15:15.554Z,16.40
2018-04-29T21:17:43.176Z,16.40
2018-04-29T21:20:10.799Z,16.30
2018-04-29T21:22:38.486Z,16.20
2018-04-29T21:25:06.161Z,16.20
2018-04-29T21:27:33.806Z,16.10
2018-04-29T21:30:01.450Z,16.10
2018-04-29T21:32:29.101Z,16.10
2018-04-29T21:34:56.741Z,16.00
2018-04-29T21:37:24.352Z,16.00
2018-04-29T21:39:51.999Z,15.90
2018-04-29T21:42:19.627Z,15.90
2018-04-29T21:44:47.251Z,15.90
2018-04-29T21:47:14.876Z,15.90
2018-04-29T21:49:42.499Z,15.90
2018-04-29T21:52:10.123Z,15.90
2018-04-29T21:54:37.748Z,15.80
2018-04-29T21:57:05.577Z,15.80
2018-04-29T21:59:33.161Z,15.70
2018-04-29T22:02:00.788Z,15.80
2018-04-29T22:04:28.417Z,15.80
2018-04-29T22:06:56.039Z,15.80
2018-04-29T22:09:23.655Z,15.80
2018-04-29T22:11:51.280Z,15.80
2018-04-29T22:14:18.902Z,15.80
2018-04-29T22:16:46.532Z,15.80
2018-04-29T22:19:15.307Z,15.80
2018-04-29T22:21:43.009Z,15.80
2018-04-29T22:24:10.552Z,15.70
2018-04-29T22:26:38.168Z,15.70
2018-04-29T22:29:05.779Z,15.70
2018-04-29T22:31:33.404Z,15.70
2018-04-29T22:34:01.027Z,15.70
2018-04-29T22:36:28.655Z,15.70
2018-04-29T22:38:56.283Z,15.60
2018-04-29T22:41:23.904Z,15.60
2018-04-29T22:43:51.524Z,15.60
2018-04-29T22:46:19.139Z,15.60
2018-04-29T22:48:46.771Z,15.60
2018-04-29T22:51:14.396Z,15.50
2018-04-29T22:53:42.027Z,15.50
2018-04-29T22:56:09.648Z,15.50
2018-04-29T22:58:37.275Z,15.50
2018-04-29T23:01:04.895Z,15.50
2018-04-29T23:03:32.527Z,15.50
2018-04-29T23:06:00.154Z,15.50
2018-04-29T23:08:27.772Z,15.50
2018-04-29T23:10:55.395Z,15.40
2018-04-29T23:13:23.020Z,15.50
2018-04-29T23:15:50.640Z,15.50
2018-04-29T23:18:18.260Z,15.40
2018-04-29T23:20:45.894Z,15.50
2018-04-29T23:23:13.511Z,15.50
2018-04-29T23:25:41.122Z,15.50
2018-04-29T23:28:08.739Z,15.50
2018-04-29T23:30:36.372Z,15.40
2018-04-29T23:33:03.984Z,15.50
2018-04-29T23:35:31.602Z,15.50
2018-04-29T23:37:59.219Z,15.70
2018-04-29T23:40:26.848Z,15.70
2018-04-29T23:42:54.462Z,15.70
2018-04-29T23:45:22.095Z,15.70
2018-04-29T23:47:49.719Z,15.70
2018-04-29T23:50:17.336Z,15.70
2018-04-29T23:52:45.435Z,15.70
2018-04-29T23:55:13.059Z,15.70
2018-04-29T23:57:40.694Z,15.70
